sensor_id;sensor_type;location;lat;lon;timestamp;pressure;altitude;pressure_sealevel;temperature;humidity
77526;BME280;66627;29.424;-98.496;2023-11-21T00:01:02;98486.79;;;22.82;23.60
77526;BME280;66627;29.424;-98.496;2023-11-21T00:03:29;98498.34;;;22.86;23.13
77526;BME280;66627;29.424;-98.496;2023-11-21T00:05:51;98504.15;;;22.86;23.12
77526;BME280;66627;29.424;-98.496;2023-11-21T00:08:17;98503.58;;;22.61;23.81
77526;BME280;66627;29.424;-98.496;2023-11-21T00:10:46;98508.89;;;23.25;23.45
77526;BME280;66627;29.424;-98.496;2023-11-21T00:13:09;98509.75;;;23.56;23.58
77526;BME280;66627;29.424;-98.496;2023-11-21T00:15:34;98519.82;;;23.26;23.18
77526;BME280;66627;29.424;-98.496;2023-11-21T00:18:00;98525.50;;;24.02;22.84
77526;BME280;66627;29.424;-98.496;2023-11-21T00:20:22;98523.60;;;23.86;23.62
77526;BME280;66627;29.424;-98.496;2023-11-21T00:22:48;98530.38;;;24.12;22.72
77526;BME280;66627;29.424;-98.496;2023-11-21T00:25:12;98533.80;;;24.02;23.88
77526;BME280;66627;29.424;-98.496;2023-11-21T00:27:43;98544.47;;;23.72;24.20
77526;BME280;66627;29.424;-98.496;2023-11-21T00:30:04;98549.19;;;23.51;24.74
77526;BME280;66627;29.424;-98.496;2023-11-21T00:32:27;98558.88;;;23.67;24.54
77526;BME280;66627;29.424;-98.496;2023-11-21T00:34:55;98563.33;;;24.21;25.17
77526;BME280;66627;29.424;-98.496;2023-11-21T00:37:20;98568.93;;;23.60;25.04
77526;BME280;66627;29.424;-98.496;2023-11-21T00:39:46;98577.78;;;23.93;26.78
77526;BME280;66627;29.424;-98.496;2023-11-21T00:42:13;98584.82;;;23.57;26.90
77526;BME280;66627;29.424;-98.496;2023-11-21T00:44:36;98587.74;;;23.30;25.46
77526;BME280;66627;29.424;-98.496;2023-11-21T00:47:06;98591.02;;;22.86;25.87
77526;BME280;66627;29.424;-98.496;2023-11-21T00:49:24;98591.33;;;21.85;25.69
77526;BME280;66627;29.424;-98.496;2023-11-21T00:51:53;98596.71;;;22.74;26.03
77526;BME280;66627;29.424;-98.496;2023-11-21T00:54:17;98602.52;;;22.58;27.54
77526;BME280;66627;29.424;-98.496;2023-11-21T00:56:42;98606.65;;;22.40;27.56
77526;BME280;66627;29.424;-98.496;2023-11-21T00:59:04;98612.36;;;22.80;27.33
77526;BME280;66627;29.424;-98.496;2023-11-21T01:01:31;98616.03;;;22.41;28.78
77526;BME280;66627;29.424;-98.496;2023-11-21T01:03:56;98618.59;;;22.65;26.66
77526;BME280;66627;29.424;-98.496;2023-11-21T01:06:23;98625.11;;;22.58;27.32
77526;BME280;66627;29.424;-98.496;2023-11-21T01:08:46;98633.94;;;22.51;27.56
77526;BME280;66627;29.424;-98.496;2023-11-21T01:11:11;98635.16;;;22.11;27.33
77526;BME280;66627;29.424;-98.496;2023-11-21T01:13:36;98637.23;;;22.33;27.85
77526;BME280;66627;29.424;-98.496;2023-11-21T01:16:00;98644.64;;;22.35;28.61
77526;BME280;66627;29.424;-98.496;2023-11-21T01:18:29;98651.38;;;22.04;27.91
77526;BME280;66627;29.424;-98.496;2023-11-21T01:20:53;98654.27;;;21.43;27.77
77526;BME280;66627;29.424;-98.496;2023-11-21T01:23:21;98655.46;;;21.80;28.22
77526;BME280;66627;29.424;-98.496;2023-11-21T01:25:45;98657.18;;;21.84;28.88
77526;BME280;66627;29.424;-98.496;2023-11-21T01:28:09;98664.38;;;21.73;28.36
77526;BME280;66627;29.424;-98.496;2023-11-21T01:30:31;98668.45;;;21.88;29.26
77526;BME280;66627;29.424;-98.496;2023-11-21T01:32:57;98675.66;;;21.12;29.10
77526;BME280;66627;29.424;-98.496;2023-11-21T01:35:26;98682.26;;;20.89;27.64
77526;BME280;66627;29.424;-98.496;2023-11-21T01:37:50;98684.23;;;20.96;27.37
77526;BME280;66627;29.424;-98.496;2023-11-21T01:40:13;98689.49;;;21.15;27.47
77526;BME280;66627;29.424;-98.496;2023-11-21T01:42:42;98692.22;;;20.43;28.39
77526;BME280;66627;29.424;-98.496;2023-11-21T01:45:05;98701.53;;;20.63;28.11
77526;BME280;66627;29.424;-98.496;2023-11-21T01:47:32;98711.08;;;20.33;28.10
77526;BME280;66627;29.424;-98.496;2023-11-21T01:49:52;98718.92;;;20.12;27.99
77526;BME280;66627;29.424;-98.496;2023-11-21T01:52:21;98722.65;;;20.30;27.75
77526;BME280;66627;29.424;-98.496;2023-11-21T01:54:46;98718.01;;;20.32;27.74
77526;BME280;66627;29.424;-98.496;2023-11-21T01:57:12;98721.72;;;20.24;28.03
77526;BME280;66627;29.424;-98.496;2023-11-21T01:59:37;98728.94;;;20.59;28.40
77526;BME280;66627;29.424;-98.496;2023-11-21T02:04:25;98731.62;;;20.81;28.06
77526;BME280;66627;29.424;-98.496;2023-11-21T02:06:50;98736.57;;;20.93;27.75
77526;BME280;66627;29.424;-98.496;2023-11-21T02:09:16;98740.26;;;20.52;28.65
77526;BME280;66627;29.424;-98.496;2023-11-21T02:11:38;98745.45;;;20.83;28.65
77526;BME280;66627;29.424;-98.496;2023-11-21T02:14:03;98748.78;;;20.77;28.65
77526;BME280;66627;29.424;-98.496;2023-11-21T02:16:31;98747.25;;;20.87;28.81
77526;BME280;66627;29.424;-98.496;2023-11-21T02:18:56;98746.39;;;20.65;28.22
77526;BME280;66627;29.424;-98.496;2023-11-21T02:21:20;98748.30;;;20.22;28.57
77526;BME280;66627;29.424;-98.496;2023-11-21T02:23:45;98753.12;;;20.13;28.99
77526;BME280;66627;29.424;-98.496;2023-11-21T02:26:09;98751.30;;;20.09;28.92
77526;BME280;66627;29.424;-98.496;2023-11-21T02:28:36;98747.90;;;20.41;29.10
77526;BME280;66627;29.424;-98.496;2023-11-21T02:31:05;98752.51;;;20.89;29.14
77526;BME280;66627;29.424;-98.496;2023-11-21T02:33:25;98758.13;;;20.76;30.39
77526;BME280;66627;29.424;-98.496;2023-11-21T02:35:51;98756.36;;;20.40;29.53
77526;BME280;66627;29.424;-98.496;2023-11-21T02:38:15;98774.37;;;20.04;29.56
77526;BME280;66627;29.424;-98.496;2023-11-21T02:40:43;98781.22;;;19.93;30.28
77526;BME280;66627;29.424;-98.496;2023-11-21T02:43:05;98778.24;;;19.68;30.39
77526;BME280;66627;29.424;-98.496;2023-11-21T02:45:32;98785.52;;;19.96;30.31
77526;BME280;66627;29.424;-98.496;2023-11-21T02:47:57;98795.78;;;20.50;30.26
77526;BME280;66627;29.424;-98.496;2023-11-21T02:50:22;98797.62;;;20.28;31.20
77526;BME280;66627;29.424;-98.496;2023-11-21T02:52:48;98798.91;;;19.59;30.29
77526;BME280;66627;29.424;-98.496;2023-11-21T02:55:12;98802.62;;;20.11;30.29
77526;BME280;66627;29.424;-98.496;2023-11-21T02:57:35;98816.12;;;20.41;30.56
77526;BME280;66627;29.424;-98.496;2023-11-21T03:00:04;98819.34;;;20.42;30.93
77526;BME280;66627;29.424;-98.496;2023-11-21T03:02:28;98820.08;;;20.55;31.80
77526;BME280;66627;29.424;-98.496;2023-11-21T03:04:55;98823.56;;;20.51;31.85
77526;BME280;66627;29.424;-98.496;2023-11-21T03:07:18;98824.77;;;19.87;31.30
77526;BME280;66627;29.424;-98.496;2023-11-21T03:09:45;98824.10;;;19.83;31.77
77526;BME280;66627;29.424;-98.496;2023-11-21T03:12:09;98824.28;;;19.99;30.99
77526;BME280;66627;29.424;-98.496;2023-11-21T03:14:34;98832.27;;;19.38;32.74
77526;BME280;66627;29.424;-98.496;2023-11-21T03:16:59;98833.82;;;20.41;31.20
77526;BME280;66627;29.424;-98.496;2023-11-21T03:19:23;98841.10;;;20.10;31.58
77526;BME280;66627;29.424;-98.496;2023-11-21T03:21:51;98846.40;;;19.88;31.89
77526;BME280;66627;29.424;-98.496;2023-11-21T03:24:13;98852.06;;;19.89;32.41
77526;BME280;66627;29.424;-98.496;2023-11-21T03:26:40;98860.04;;;19.76;33.37
77526;BME280;66627;29.424;-98.496;2023-11-21T03:29:05;98869.42;;;19.71;32.86
77526;BME280;66627;29.424;-98.496;2023-11-21T03:31:32;98870.01;;;19.57;34.00
77526;BME280;66627;29.424;-98.496;2023-11-21T03:33:57;98870.40;;;19.26;34.09
77526;BME280;66627;29.424;-98.496;2023-11-21T03:36:19;98867.67;;;19.46;33.42
77526;BME280;66627;29.424;-98.496;2023-11-21T03:38:47;98861.84;;;19.89;32.74
77526;BME280;66627;29.424;-98.496;2023-11-21T03:41:09;98864.54;;;19.80;33.01
77526;BME280;66627;29.424;-98.496;2023-11-21T03:43:35;98871.67;;;18.92;33.54
77526;BME280;66627;29.424;-98.496;2023-11-21T03:46:01;98877.56;;;19.05;33.94
77526;BME280;66627;29.424;-98.496;2023-11-21T03:48:28;98890.08;;;18.91;33.62
77526;BME280;66627;29.424;-98.496;2023-11-21T03:50:49;98890.96;;;18.35;34.74
77526;BME280;66627;29.424;-98.496;2023-11-21T03:53:18;98899.18;;;19.21;34.38
77526;BME280;66627;29.424;-98.496;2023-11-21T03:55:42;98899.89;;;18.86;34.57
77526;BME280;66627;29.424;-98.496;2023-11-21T03:58:07;98911.69;;;18.74;34.81
77526;BME280;66627;29.424;-98.496;2023-11-21T04:00:32;98919.05;;;18.14;35.25
77526;BME280;66627;29.424;-98.496;2023-11-21T04:02:58;98924.52;;;18.57;34.96
77526;BME280;66627;29.424;-98.496;2023-11-21T04:05:24;98930.53;;;18.57;35.41
77526;BME280;66627;29.424;-98.496;2023-11-21T04:07:51;98935.86;;;18.35;35.56
77526;BME280;66627;29.424;-98.496;2023-11-21T04:10:13;98939.61;;;18.70;35.07
77526;BME280;66627;29.424;-98.496;2023-11-21T04:12:50;98942.45;;;18.21;35.51
77526;BME280;66627;29.424;-98.496;2023-11-21T04:15:05;98945.67;;;18.08;35.63
77526;BME280;66627;29.424;-98.496;2023-11-21T04:17:30;98943.40;;;18.30;35.34
77526;BME280;66627;29.424;-98.496;2023-11-21T04:19:54;98958.51;;;17.97;35.63
77526;BME280;66627;29.424;-98.496;2023-11-21T04:22:28;98969.45;;;17.79;36.38
77526;BME280;66627;29.424;-98.496;2023-11-21T04:24:48;98966.58;;;18.57;35.20
77526;BME280;66627;29.424;-98.496;2023-11-21T04:27:11;98978.43;;;18.26;35.76
77526;BME280;66627;29.424;-98.496;2023-11-21T04:29:34;98974.16;;;18.86;35.75
77526;BME280;66627;29.424;-98.496;2023-11-21T04:32:06;98981.20;;;18.08;35.83
77526;BME280;66627;29.424;-98.496;2023-11-21T04:34:29;98983.54;;;18.04;35.81
77526;BME280;66627;29.424;-98.496;2023-11-21T04:36:52;98990.02;;;18.06;36.03
77526;BME280;66627;29.424;-98.496;2023-11-21T04:39:17;98997.80;;;18.01;35.59
77526;BME280;66627;29.424;-98.496;2023-11-21T04:41:41;98988.75;;;18.16;35.48
77526;BME280;66627;29.424;-98.496;2023-11-21T04:44:06;98991.11;;;17.61;35.83
77526;BME280;66627;29.424;-98.496;2023-11-21T04:46:37;98991.83;;;17.94;36.15
77526;BME280;66627;29.424;-98.496;2023-11-21T04:48:57;98991.27;;;18.91;35.09
77526;BME280;66627;29.424;-98.496;2023-11-21T04:51:21;99000.49;;;17.28;36.02
77526;BME280;66627;29.424;-98.496;2023-11-21T04:53:47;98997.23;;;17.54;36.04
77526;BME280;66627;29.424;-98.496;2023-11-21T04:56:12;99001.65;;;17.54;35.94
77526;BME280;66627;29.424;-98.496;2023-11-21T04:58:39;99004.57;;;17.72;36.08
77526;BME280;66627;29.424;-98.496;2023-11-21T05:01:02;99006.87;;;17.95;35.84
77526;BME280;66627;29.424;-98.496;2023-11-21T05:03:27;99016.47;;;17.78;36.51
77526;BME280;66627;29.424;-98.496;2023-11-21T05:05:53;99023.99;;;17.51;36.19
77526;BME280;66627;29.424;-98.496;2023-11-21T05:08:17;99026.06;;;17.14;36.59
77526;BME280;66627;29.424;-98.496;2023-11-21T05:10:44;99022.15;;;17.27;36.81
77526;BME280;66627;29.424;-98.496;2023-11-21T05:13:09;99020.81;;;17.04;37.08
77526;BME280;66627;29.424;-98.496;2023-11-21T05:15:33;99026.78;;;16.92;37.74
77526;BME280;66627;29.424;-98.496;2023-11-21T05:17:59;99021.16;;;16.79;37.55
77526;BME280;66627;29.424;-98.496;2023-11-21T05:20:35;99017.00;;;17.00;37.43
77526;BME280;66627;29.424;-98.496;2023-11-21T05:22:53;99020.33;;;17.14;36.91
77526;BME280;66627;29.424;-98.496;2023-11-21T05:25:15;99024.01;;;17.09;37.02
77526;BME280;66627;29.424;-98.496;2023-11-21T05:27:51;99018.63;;;17.49;36.96
77526;BME280;66627;29.424;-98.496;2023-11-21T05:30:08;99019.71;;;16.45;38.48
77526;BME280;66627;29.424;-98.496;2023-11-21T05:32:32;99026.59;;;17.32;37.02
77526;BME280;66627;29.424;-98.496;2023-11-21T05:34:59;99024.96;;;16.95;37.48
77526;BME280;66627;29.424;-98.496;2023-11-21T05:37:22;99025.54;;;16.86;36.95
77526;BME280;66627;29.424;-98.496;2023-11-21T05:39:46;99020.94;;;16.35;37.30
77526;BME280;66627;29.424;-98.496;2023-11-21T05:42:11;99030.08;;;16.69;37.79
77526;BME280;66627;29.424;-98.496;2023-11-21T05:44:41;99024.79;;;16.03;38.46
77526;BME280;66627;29.424;-98.496;2023-11-21T05:47:00;99030.94;;;16.99;37.42
77526;BME280;66627;29.424;-98.496;2023-11-21T05:49:27;99038.05;;;16.02;38.38
77526;BME280;66627;29.424;-98.496;2023-11-21T05:51:51;99049.77;;;16.40;37.84
77526;BME280;66627;29.424;-98.496;2023-11-21T05:54:16;99054.13;;;16.04;38.62
77526;BME280;66627;29.424;-98.496;2023-11-21T05:56:41;99056.51;;;16.34;38.40
77526;BME280;66627;29.424;-98.496;2023-11-21T05:59:06;99058.81;;;16.13;38.62
77526;BME280;66627;29.424;-98.496;2023-11-21T06:01:31;99063.25;;;16.28;38.22
77526;BME280;66627;29.424;-98.496;2023-11-21T06:03:57;99065.00;;;16.41;38.28
77526;BME280;66627;29.424;-98.496;2023-11-21T06:06:23;99057.76;;;16.62;38.61
77526;BME280;66627;29.424;-98.496;2023-11-21T06:08:46;99058.57;;;16.23;38.77
77526;BME280;66627;29.424;-98.496;2023-11-21T06:11:11;99064.99;;;15.97;39.22
77526;BME280;66627;29.424;-98.496;2023-11-21T06:13:38;99074.86;;;16.66;37.98
77526;BME280;66627;29.424;-98.496;2023-11-21T06:16:03;99080.65;;;16.25;38.47
77526;BME280;66627;29.424;-98.496;2023-11-21T06:18:27;99085.58;;;16.45;38.85
77526;BME280;66627;29.424;-98.496;2023-11-21T06:20:53;99088.41;;;16.69;37.96
77526;BME280;66627;29.424;-98.496;2023-11-21T06:23:18;99085.21;;;16.99;38.09
77526;BME280;66627;29.424;-98.496;2023-11-21T06:25:45;99099.62;;;16.54;38.37
77526;BME280;66627;29.424;-98.496;2023-11-21T06:28:08;99112.52;;;16.81;38.07
77526;BME280;66627;29.424;-98.496;2023-11-21T06:30:35;99108.35;;;16.66;38.28
77526;BME280;66627;29.424;-98.496;2023-11-21T06:32:57;99117.01;;;17.21;38.51
77526;BME280;66627;29.424;-98.496;2023-11-21T06:35:24;99117.11;;;16.28;39.68
77526;BME280;66627;29.424;-98.496;2023-11-21T06:37:47;99112.97;;;16.32;38.75
77526;BME280;66627;29.424;-98.496;2023-11-21T06:40:14;99124.06;;;15.91;40.12
77526;BME280;66627;29.424;-98.496;2023-11-21T06:42:40;99128.25;;;16.89;38.80
77526;BME280;66627;29.424;-98.496;2023-11-21T06:45:04;99141.29;;;16.17;39.61
77526;BME280;66627;29.424;-98.496;2023-11-21T06:47:30;99155.22;;;16.06;39.72
77526;BME280;66627;29.424;-98.496;2023-11-21T06:49:55;99154.28;;;15.82;39.83
77526;BME280;66627;29.424;-98.496;2023-11-21T06:52:21;99165.74;;;16.71;39.90
77526;BME280;66627;29.424;-98.496;2023-11-21T06:54:47;99166.06;;;16.42;39.45
77526;BME280;66627;29.424;-98.496;2023-11-21T06:57:10;99174.60;;;16.55;39.62
77526;BME280;66627;29.424;-98.496;2023-11-21T06:59:34;99180.07;;;15.86;40.87
77526;BME280;66627;29.424;-98.496;2023-11-21T07:02:00;99179.19;;;15.40;40.78
77526;BME280;66627;29.424;-98.496;2023-11-21T07:04:27;99179.00;;;15.72;40.79
77526;BME280;66627;29.424;-98.496;2023-11-21T07:06:51;99177.79;;;15.66;41.08
77526;BME280;66627;29.424;-98.496;2023-11-21T07:09:16;99188.01;;;16.05;40.04
77526;BME280;66627;29.424;-98.496;2023-11-21T07:11:42;99191.56;;;16.45;39.84
77526;BME280;66627;29.424;-98.496;2023-11-21T07:14:07;99193.53;;;15.99;40.01
77526;BME280;66627;29.424;-98.496;2023-11-21T07:16:31;99196.82;;;16.26;40.30
77526;BME280;66627;29.424;-98.496;2023-11-21T07:18:57;99199.53;;;15.90;39.57
77526;BME280;66627;29.424;-98.496;2023-11-21T07:21:23;99205.65;;;15.33;40.87
77526;BME280;66627;29.424;-98.496;2023-11-21T07:23:47;99194.47;;;16.13;39.88
77526;BME280;66627;29.424;-98.496;2023-11-21T07:26:12;99199.99;;;16.34;39.93
77526;BME280;66627;29.424;-98.496;2023-11-21T07:28:39;99208.62;;;16.03;40.19
77526;BME280;66627;29.424;-98.496;2023-11-21T07:31:05;99211.32;;;16.05;39.91
77526;BME280;66627;29.424;-98.496;2023-11-21T07:33:28;99213.97;;;16.16;40.07
77526;BME280;66627;29.424;-98.496;2023-11-21T07:35:52;99210.45;;;17.08;39.17
77526;BME280;66627;29.424;-98.496;2023-11-21T07:38:17;99218.04;;;16.95;39.11
77526;BME280;66627;29.424;-98.496;2023-11-21T07:40:42;99218.94;;;16.51;39.18
77526;BME280;66627;29.424;-98.496;2023-11-21T07:43:10;99212.65;;;16.39;39.65
77526;BME280;66627;29.424;-98.496;2023-11-21T07:45:34;99216.93;;;16.22;40.27
77526;BME280;66627;29.424;-98.496;2023-11-21T07:48:00;99219.69;;;16.16;39.86
77526;BME280;66627;29.424;-98.496;2023-11-21T07:50:26;99224.61;;;16.26;40.37
77526;BME280;66627;29.424;-98.496;2023-11-21T07:52:51;99229.81;;;16.29;40.55
77526;BME280;66627;29.424;-98.496;2023-11-21T07:55:16;99235.21;;;16.46;39.66
77526;BME280;66627;29.424;-98.496;2023-11-21T07:57:41;99235.97;;;16.82;39.19
77526;BME280;66627;29.424;-98.496;2023-11-21T08:00:06;99234.14;;;16.13;39.47
77526;BME280;66627;29.424;-98.496;2023-11-21T08:02:30;99233.39;;;16.51;39.36
77526;BME280;66627;29.424;-98.496;2023-11-21T08:04:55;99233.63;;;16.35;40.26
77526;BME280;66627;29.424;-98.496;2023-11-21T08:07:21;99245.05;;;15.22;40.52
77526;BME280;66627;29.424;-98.496;2023-11-21T08:09:46;99241.60;;;15.66;39.86
77526;BME280;66627;29.424;-98.496;2023-11-21T08:12:12;99249.32;;;15.13;40.94
77526;BME280;66627;29.424;-98.496;2023-11-21T08:14:36;99247.99;;;15.80;39.96
77526;BME280;66627;29.424;-98.496;2023-11-21T08:17:01;99244.03;;;16.08;39.46
77526;BME280;66627;29.424;-98.496;2023-11-21T08:19:27;99249.55;;;15.92;39.38
77526;BME280;66627;29.424;-98.496;2023-11-21T08:21:52;99256.20;;;16.07;39.09
77526;BME280;66627;29.424;-98.496;2023-11-21T08:24:17;99254.36;;;16.39;39.40
77526;BME280;66627;29.424;-98.496;2023-11-21T08:26:42;99257.07;;;16.14;39.51
77526;BME280;66627;29.424;-98.496;2023-11-21T08:29:07;99258.78;;;15.90;39.87
77526;BME280;66627;29.424;-98.496;2023-11-21T08:31:31;99264.61;;;15.26;40.91
77526;BME280;66627;29.424;-98.496;2023-11-21T08:33:58;99264.29;;;15.86;39.65
77526;BME280;66627;29.424;-98.496;2023-11-21T08:36:22;99278.23;;;15.96;39.63
77526;BME280;66627;29.424;-98.496;2023-11-21T08:38:49;99289.28;;;15.99;39.45
77526;BME280;66627;29.424;-98.496;2023-11-21T08:41:14;99291.15;;;16.08;39.24
77526;BME280;66627;29.424;-98.496;2023-11-21T08:43:40;99293.20;;;16.23;39.28
77526;BME280;66627;29.424;-98.496;2023-11-21T08:46:03;99296.07;;;16.39;38.76
77526;BME280;66627;29.424;-98.496;2023-11-21T08:48:29;99296.39;;;15.51;39.55
77526;BME280;66627;29.424;-98.496;2023-11-21T08:50:54;99302.64;;;14.93;40.34
77526;BME280;66627;29.424;-98.496;2023-11-21T08:53:19;99305.32;;;14.71;40.67
77526;BME280;66627;29.424;-98.496;2023-11-21T08:55:44;99305.90;;;14.45;41.20
77526;BME280;66627;29.424;-98.496;2023-11-21T08:58:10;99312.06;;;15.29;39.86
77526;BME280;66627;29.424;-98.496;2023-11-21T09:00:36;99316.32;;;14.59;41.03
77526;BME280;66627;29.424;-98.496;2023-11-21T09:03:02;99317.04;;;14.26;40.63
77526;BME280;66627;29.424;-98.496;2023-11-21T09:05:25;99322.05;;;14.83;39.89
77526;BME280;66627;29.424;-98.496;2023-11-21T09:07:50;99325.75;;;14.87;40.06
77526;BME280;66627;29.424;-98.496;2023-11-21T09:10:16;99321.94;;;14.11;40.19
77526;BME280;66627;29.424;-98.496;2023-11-21T09:12:42;99321.15;;;14.29;40.53
77526;BME280;66627;29.424;-98.496;2023-11-21T09:15:08;99323.63;;;14.53;39.23
77526;BME280;66627;29.424;-98.496;2023-11-21T09:17:32;99323.77;;;13.88;40.52
77526;BME280;66627;29.424;-98.496;2023-11-21T09:19:56;99316.45;;;14.04;40.45
77526;BME280;66627;29.424;-98.496;2023-11-21T09:22:21;99322.28;;;13.77;40.48
77526;BME280;66627;29.424;-98.496;2023-11-21T09:24:48;99326.53;;;14.30;40.16
77526;BME280;66627;29.424;-98.496;2023-11-21T09:27:12;99338.62;;;15.08;38.54
77526;BME280;66627;29.424;-98.496;2023-11-21T09:29:37;99339.83;;;14.94;38.85
77526;BME280;66627;29.424;-98.496;2023-11-21T09:32:03;99337.98;;;14.56;39.40
77526;BME280;66627;29.424;-98.496;2023-11-21T09:34:29;99341.96;;;14.70;39.21
77526;BME280;66627;29.424;-98.496;2023-11-21T09:36:53;99341.17;;;14.48;39.33
77526;BME280;66627;29.424;-98.496;2023-11-21T09:39:19;99337.75;;;14.33;38.72
77526;BME280;66627;29.424;-98.496;2023-11-21T09:41:48;99342.26;;;14.01;39.09
77526;BME280;66627;29.424;-98.496;2023-11-21T09:44:13;99343.86;;;14.13;38.65
77526;BME280;66627;29.424;-98.496;2023-11-21T09:46:35;99333.21;;;14.13;39.36
77526;BME280;66627;29.424;-98.496;2023-11-21T09:49:01;99334.52;;;13.89;39.02
77526;BME280;66627;29.424;-98.496;2023-11-21T09:51:28;99338.83;;;14.02;39.40
77526;BME280;66627;29.424;-98.496;2023-11-21T09:53:52;99344.36;;;13.74;39.56
77526;BME280;66627;29.424;-98.496;2023-11-21T09:56:16;99349.76;;;14.22;39.42
77526;BME280;66627;29.424;-98.496;2023-11-21T09:58:39;99361.37;;;14.20;39.20
77526;BME280;66627;29.424;-98.496;2023-11-21T10:01:07;99371.17;;;14.22;38.97
77526;BME280;66627;29.424;-98.496;2023-11-21T10:03:32;99375.34;;;13.65;39.87
77526;BME280;66627;29.424;-98.496;2023-11-21T10:05:57;99379.68;;;14.11;39.17
77526;BME280;66627;29.424;-98.496;2023-11-21T10:08:20;99385.78;;;13.51;39.45
77526;BME280;66627;29.424;-98.496;2023-11-21T10:10:46;99382.71;;;13.76;39.21
77526;BME280;66627;29.424;-98.496;2023-11-21T10:13:14;99386.61;;;12.98;40.21
77526;BME280;66627;29.424;-98.496;2023-11-21T10:15:37;99387.99;;;14.05;39.49
77526;BME280;66627;29.424;-98.496;2023-11-21T10:18:03;99389.06;;;14.25;39.14
77526;BME280;66627;29.424;-98.496;2023-11-21T10:20:25;99392.11;;;14.43;39.04
77526;BME280;66627;29.424;-98.496;2023-11-21T10:22:51;99392.36;;;13.39;39.54
77526;BME280;66627;29.424;-98.496;2023-11-21T10:25:19;99399.54;;;13.97;39.85
77526;BME280;66627;29.424;-98.496;2023-11-21T10:27:42;99402.39;;;13.98;38.83
77526;BME280;66627;29.424;-98.496;2023-11-21T10:30:08;99401.48;;;13.55;39.89
77526;BME280;66627;29.424;-98.496;2023-11-21T10:32:33;99405.67;;;13.49;39.40
77526;BME280;66627;29.424;-98.496;2023-11-21T10:34:59;99413.45;;;13.81;39.69
77526;BME280;66627;29.424;-98.496;2023-11-21T10:37:22;99416.30;;;14.60;38.14
77526;BME280;66627;29.424;-98.496;2023-11-21T10:39:46;99421.36;;;14.47;38.62
77526;BME280;66627;29.424;-98.496;2023-11-21T10:42:12;99428.11;;;13.65;39.72
77526;BME280;66627;29.424;-98.496;2023-11-21T10:44:40;99433.86;;;14.63;38.94
77526;BME280;66627;29.424;-98.496;2023-11-21T10:47:05;99439.41;;;13.78;39.05
77526;BME280;66627;29.424;-98.496;2023-11-21T10:49:30;99436.76;;;12.89;40.81
77526;BME280;66627;29.424;-98.496;2023-11-21T10:51:54;99439.37;;;12.59;41.56
77526;BME280;66627;29.424;-98.496;2023-11-21T10:54:20;99438.95;;;13.37;40.28
77526;BME280;66627;29.424;-98.496;2023-11-21T10:56:44;99444.86;;;13.67;41.00
77526;BME280;66627;29.424;-98.496;2023-11-21T10:59:11;99440.82;;;13.11;40.76
77526;BME280;66627;29.424;-98.496;2023-11-21T11:01:38;99442.33;;;13.45;40.91
77526;BME280;66627;29.424;-98.496;2023-11-21T11:04:00;99445.74;;;13.65;40.40
77526;BME280;66627;29.424;-98.496;2023-11-21T11:06:26;99444.00;;;13.17;41.76
77526;BME280;66627;29.424;-98.496;2023-11-21T11:08:52;99449.12;;;13.71;40.05
77526;BME280;66627;29.424;-98.496;2023-11-21T11:11:14;99450.66;;;13.10;40.73
77526;BME280;66627;29.424;-98.496;2023-11-21T11:13:45;99458.57;;;13.10;40.92
77526;BME280;66627;29.424;-98.496;2023-11-21T11:16:08;99461.80;;;13.06;41.59
77526;BME280;66627;29.424;-98.496;2023-11-21T11:18:32;99470.69;;;12.92;41.70
77526;BME280;66627;29.424;-98.496;2023-11-21T11:21:05;99478.87;;;13.07;42.24
77526;BME280;66627;29.424;-98.496;2023-11-21T11:23:31;99486.21;;;12.16;43.04
77526;BME280;66627;29.424;-98.496;2023-11-21T11:25:59;99489.60;;;13.05;43.39
77526;BME280;66627;29.424;-98.496;2023-11-21T11:28:15;99502.63;;;12.61;42.13
77526;BME280;66627;29.424;-98.496;2023-11-21T11:30:47;99507.33;;;13.57;42.08
77526;BME280;66627;29.424;-98.496;2023-11-21T11:33:08;99515.78;;;13.20;42.00
77526;BME280;66627;29.424;-98.496;2023-11-21T11:35:34;99514.28;;;12.83;42.16
77526;BME280;66627;29.424;-98.496;2023-11-21T11:37:53;99518.75;;;12.42;43.11
77526;BME280;66627;29.424;-98.496;2023-11-21T11:40:17;99514.12;;;12.53;42.93
77526;BME280;66627;29.424;-98.496;2023-11-21T11:42:58;99515.51;;;13.20;42.99
77526;BME280;66627;29.424;-98.496;2023-11-21T11:47:34;99526.26;;;13.18;42.76
77526;BME280;66627;29.424;-98.496;2023-11-21T11:50:03;99532.99;;;13.02;42.61
77526;BME280;66627;29.424;-98.496;2023-11-21T11:52:34;99535.28;;;13.38;42.35
77526;BME280;66627;29.424;-98.496;2023-11-21T11:54:51;99537.54;;;13.01;43.57
77526;BME280;66627;29.424;-98.496;2023-11-21T11:57:15;99545.36;;;12.91;42.53
77526;BME280;66627;29.424;-98.496;2023-11-21T12:02:07;99552.70;;;12.86;42.64
77526;BME280;66627;29.424;-98.496;2023-11-21T12:04:30;99554.92;;;12.78;43.40
77526;BME280;66627;29.424;-98.496;2023-11-21T12:06:56;99557.28;;;12.84;43.01
77526;BME280;66627;29.424;-98.496;2023-11-21T12:09:23;99566.57;;;12.52;43.48
77526;BME280;66627;29.424;-98.496;2023-11-21T12:11:52;99570.53;;;12.92;43.25
77526;BME280;66627;29.424;-98.496;2023-11-21T12:14:16;99575.06;;;13.40;42.96
77526;BME280;66627;29.424;-98.496;2023-11-21T12:16:37;99579.94;;;12.78;43.42
77526;BME280;66627;29.424;-98.496;2023-11-21T12:19:00;99575.47;;;13.07;43.29
77526;BME280;66627;29.424;-98.496;2023-11-21T12:21:27;99580.56;;;13.11;43.60
77526;BME280;66627;29.424;-98.496;2023-11-21T12:23:52;99585.24;;;13.51;42.38
77526;BME280;66627;29.424;-98.496;2023-11-21T12:26:17;99586.50;;;12.84;42.49
77526;BME280;66627;29.424;-98.496;2023-11-21T12:28:42;99595.57;;;12.76;43.41
77526;BME280;66627;29.424;-98.496;2023-11-21T12:31:08;99596.60;;;13.55;42.28
77526;BME280;66627;29.424;-98.496;2023-11-21T12:33:32;99597.34;;;13.26;43.15
77526;BME280;66627;29.424;-98.496;2023-11-21T12:35:57;99606.61;;;13.51;42.52